Time;durP1;ratioP1;P1;durP2;ratioP2;P2;SDS_P1;SDS_P2;PMS_P1;PMS_P2;Temp;Humidity;BMP_temperature;BMP_pressure;BME280_temperature;BME280_humidity;BME280_pressure;Samples;Min_cycle;Max_cycle;Signal;HPM_P1;HPM_P2
2023/09/22 00:01:01;;;;;;;3.72;1.40;;;;;;;11.48;82.75;99003.44;5069324;28;20053;-48
2023/09/22 00:03:31;;;;;;;6.53;2.10;;;;;;;11.48;82.71;99014.50;5069763;28;20048;-44
2023/09/22 00:05:58;;;;;;;6.80;1.77;;;;;;;11.49;82.88;99016.09;5068480;28;20039;-44
2023/09/22 00:08:25;;;;;;;3.80;1.50;;;;;;;11.44;82.94;99013.69;5068333;28;20051;-44
2023/09/22 00:10:53;;;;;;;8.45;2.55;;;;;;;11.45;83.10;99020.84;5065915;28;20036;-45
2023/09/22 00:13:21;;;;;;;5.93;1.77;;;;;;;11.45;83.11;99031.13;5067686;28;20044;-46
2023/09/22 00:15:47;;;;;;;5.20;1.20;;;;;;;11.43;83.19;99026.00;5069276;28;20043;-45
2023/09/22 00:18:14;;;;;;;6.03;1.40;;;;;;;11.44;83.39;99030.31;5068478;28;20154;-44
2023/09/22 00:20:42;;;;;;;4.82;1.30;;;;;;;11.47;83.39;99031.50;5064487;28;20492;-44
2023/09/22 00:23:08;;;;;;;6.32;1.88;;;;;;;11.47;83.58;99032.31;5066375;28;20550;-44
2023/09/22 00:25:35;;;;;;;6.03;1.63;;;;;;;11.48;83.55;99030.34;5046960;28;20414;-45
2023/09/22 00:28:02;;;;;;;2.95;1.45;;;;;;;11.50;83.63;99034.31;5035548;28;20045;-46
2023/09/22 00:30:29;;;;;;;3.03;1.15;;;;;;;11.54;83.59;99032.31;5015813;28;20044;-47
2023/09/22 00:32:57;;;;;;;8.15;1.45;;;;;;;11.49;83.84;99029.94;5034681;28;20055;-46
2023/09/22 00:35:24;;;;;;;3.28;1.20;;;;;;;11.47;83.90;99031.50;5036215;28;20093;-45
2023/09/22 00:37:50;;;;;;;5.47;1.73;;;;;;;11.45;83.83;99031.91;5033764;28;20048;-49
2023/09/22 00:40:17;;;;;;;2.53;0.90;;;;;;;11.42;84.17;99040.22;5035837;28;20040;-48
2023/09/22 00:42:45;;;;;;;4.43;1.67;;;;;;;11.39;84.30;99033.47;5037022;28;20049;-48
2023/09/22 00:45:14;;;;;;;11.27;1.65;;;;;;;11.42;84.32;99032.69;5037805;28;20163;-47
2023/09/22 00:47:41;;;;;;;6.57;1.70;;;;;;;11.44;84.43;99037.84;5039730;28;20529;-44
2023/09/22 00:50:11;;;;;;;4.03;1.30;;;;;;;11.41;84.46;99033.09;5069810;28;20056;-46
2023/09/22 00:52:41;;;;;;;6.78;1.70;;;;;;;11.38;84.56;99037.47;5051684;28;20460;-45
2023/09/22 00:55:08;;;;;;;3.03;1.70;;;;;;;11.35;84.74;99045.75;5068687;28;20044;-44
2023/09/22 00:57:35;;;;;;;4.07;1.73;;;;;;;11.34;85.14;99046.91;5050969;28;20082;-45
2023/09/22 01:00:04;;;;;;;4.95;1.45;;;;;;;11.31;85.28;99037.41;5068666;28;20048;-44
2023/09/22 01:02:31;;;;;;;5.40;1.10;;;;;;;11.30;85.16;99041.38;5068435;28;20536;-44
2023/09/22 01:04:58;;;;;;;2.60;1.05;;;;;;;11.30;85.20;99046.94;5068045;28;20064;-45
2023/09/22 01:07:26;;;;;;;8.45;1.73;;;;;;;11.27;85.26;99042.16;5069624;28;20478;-44
2023/09/22 01:09:53;;;;;;;8.88;1.55;;;;;;;11.27;85.35;99047.72;5068985;28;20048;-44
2023/09/22 01:12:20;;;;;;;6.13;1.13;;;;;;;11.28;85.25;99052.03;5068550;28;20486;-44
2023/09/22 01:14:48;;;;;;;5.13;1.23;;;;;;;11.28;85.32;99054.03;5066697;28;20091;-44
2023/09/22 01:17:15;;;;;;;6.63;2.08;;;;;;;11.20;85.72;99047.66;5068777;28;20055;-44
2023/09/22 01:19:43;;;;;;;4.05;1.33;;;;;;;11.18;85.64;99052.00;5067257;28;20024;-44
2023/09/22 01:22:10;;;;;;;9.30;1.17;;;;;;;11.16;85.72;99055.19;5037929;28;20049;-44
2023/09/22 01:24:36;;;;;;;5.70;1.48;;;;;;;11.16;85.72;99060.72;5067915;28;20454;-44
2023/09/22 01:27:03;;;;;;;5.30;1.35;;;;;;;11.16;85.82;99074.56;5068713;28;20126;-45
2023/09/22 01:29:30;;;;;;;7.05;2.15;;;;;;;11.18;85.89;99069.44;5034399;28;20397;-44
2023/09/22 01:31:57;;;;;;;4.90;1.50;;;;;;;11.14;85.91;99060.31;5068886;28;20040;-49
2023/09/22 01:34:24;;;;;;;4.60;1.48;;;;;;;11.15;85.87;99064.66;5071329;28;20048;-49
2023/09/22 01:36:51;;;;;;;7.10;1.40;;;;;;;11.10;86.16;99065.03;5070219;28;20055;-47
2023/09/22 01:39:18;;;;;;;3.50;1.40;;;;;;;11.09;86.10;99060.69;5072006;28;20055;-46
2023/09/22 01:41:45;;;;;;;6.90;1.98;;;;;;;11.09;86.14;99063.47;5070857;28;20078;-45
2023/09/22 01:44:12;;;;;;;9.23;1.38;;;;;;;11.06;86.28;99064.25;5069632;28;20052;-46
2023/09/22 01:46:39;;;;;;;9.05;1.60;;;;;;;11.02;86.36;99063.41;5068500;28;20512;-46
2023/09/22 01:49:05;;;;;;;3.38;1.17;;;;;;;11.02;86.33;99074.50;5069778;28;20048;-46
2023/09/22 01:51:33;;;;;;;9.77;2.10;;;;;;;11.00;86.52;99074.91;5072422;28;20068;-45
2023/09/22 01:53:59;;;;;;;4.72;1.27;;;;;;;10.99;86.69;99084.38;5072403;28;20040;-45
2023/09/22 01:56:26;;;;;;;2.65;1.15;;;;;;;10.98;86.66;99084.78;5072120;28;20044;-44
2023/09/22 01:58:53;;;;;;;5.88;2.40;;;;;;;10.98;86.74;99091.13;5070846;28;20501;-44
2023/09/22 02:01:20;;;;;;;5.63;1.42;;;;;;;10.99;86.91;99087.16;5070106;28;20094;-45
2023/09/22 02:03:47;;;;;;;6.88;1.27;;;;;;;11.01;86.97;99084.00;5070441;28;20490;-46
2023/09/22 02:06:15;;;;;;;3.83;1.35;;;;;;;10.97;87.04;99086.75;5069524;28;20064;-46
2023/09/22 02:08:43;;;;;;;4.25;1.02;;;;;;;10.96;87.24;99087.91;5070274;28;20037;-46
2023/09/22 02:11:11;;;;;;;5.55;1.52;;;;;;;10.93;87.28;99096.22;5071491;28;20489;-46
2023/09/22 02:13:40;;;;;;;8.02;1.20;;;;;;;10.92;87.28;99089.88;5053533;28;20060;-46
2023/09/22 02:16:07;;;;;;;8.75;1.42;;;;;;;10.90;87.46;99094.22;5070501;28;22067;-45
2023/09/22 02:18:35;;;;;;;4.57;0.90;;;;;;;10.89;87.49;99103.69;5071027;28;20391;-45
2023/09/22 02:21:03;;;;;;;5.38;1.45;;;;;;;10.87;87.53;99089.47;5069721;28;20090;-46
2023/09/22 02:23:30;;;;;;;7.03;1.42;;;;;;;10.87;87.51;99095.00;5070734;28;20059;-46
2023/09/22 02:26:04;;;;;;;9.07;2.30;;;;;;;10.84;87.72;99091.03;5068695;28;20041;-45
2023/09/22 02:28:31;;;;;;;8.35;1.48;;;;;;;10.84;87.81;99096.56;5066396;28;20411;-46
2023/09/22 02:30:58;;;;;;;7.97;1.17;;;;;;;10.82;87.60;99092.59;5071251;28;20127;-45
2023/09/22 02:33:25;;;;;;;7.00;1.45;;;;;;;10.83;87.64;99097.72;5051003;28;20048;-46
2023/09/22 02:35:52;;;;;;;10.60;1.23;;;;;;;10.84;87.76;99102.09;5068900;28;20040;-46
2023/09/22 02:38:19;;;;;;;4.65;1.88;;;;;;;10.83;87.65;99099.72;5070790;28;20041;-45
2023/09/22 02:40:45;;;;;;;6.28;1.50;;;;;;;10.81;87.57;99100.09;5067357;28;20044;-47
2023/09/22 02:43:13;;;;;;;5.40;2.63;;;;;;;10.80;87.80;99109.56;5069774;28;20138;-46
2023/09/22 02:45:40;;;;;;;6.90;1.35;;;;;;;10.80;87.80;99106.81;5067416;28;20103;-46
2023/09/22 02:48:08;;;;;;;4.38;1.20;;;;;;;10.78;87.97;99109.19;5069319;28;20063;-46
2023/09/22 02:50:37;;;;;;;2.15;1.42;;;;;;;10.76;88.02;99116.28;5068584;28;20497;-46
2023/09/22 02:53:05;;;;;;;5.78;1.17;;;;;;;10.76;87.87;99116.28;5070174;28;20118;-46
2023/09/22 02:55:32;;;;;;;9.02;1.45;;;;;;;10.75;87.96;99120.25;5070203;28;20094;-46
2023/09/22 02:57:59;;;;;;;3.38;1.05;;;;;;;10.75;87.81;99118.25;5069811;28;20052;-46
2023/09/22 03:02:54;;;;;;;5.60;1.63;;;;;;;10.70;88.06;99123.34;4987547;22;20060;-44
2023/09/22 03:05:21;;;;;;;3.80;1.42;;;;;;;10.69;88.38;99121.78;5048810;28;20424;-45
2023/09/22 03:07:50;;;;;;;7.03;1.05;;;;;;;10.67;88.26;99124.16;5048966;28;20049;-45
2023/09/22 03:10:17;;;;;;;5.35;1.58;;;;;;;10.66;88.25;99128.88;5050320;28;20520;-44
2023/09/22 03:12:44;;;;;;;7.65;1.23;;;;;;;10.66;88.33;99125.31;5050535;28;20053;-44
2023/09/22 03:15:13;;;;;;;4.35;1.33;;;;;;;10.63;88.31;99128.84;5041243;28;20668;-46
2023/09/22 03:17:41;;;;;;;4.93;1.83;;;;;;;10.62;88.45;99135.53;5048268;28;20060;-45
2023/09/22 03:20:12;;;;;;;5.10;1.20;;;;;;;10.62;88.34;99127.25;5048491;28;20041;-46
2023/09/22 03:22:40;;;;;;;3.60;1.38;;;;;;;10.61;88.29;99133.97;5045675;28;20501;-45
2023/09/22 03:25:08;;;;;;;7.60;1.35;;;;;;;10.57;88.37;99133.13;5048677;28;20037;-44
2023/09/22 03:27:36;;;;;;;5.53;1.30;;;;;;;10.54;88.53;99142.22;5046484;28;20601;-44
2023/09/22 03:30:06;;;;;;;9.82;1.88;;;;;;;10.54;88.54;99140.25;5046543;28;20056;-46
2023/09/22 03:32:33;;;;;;;3.85;1.20;;;;;;;10.52;88.44;99139.84;5050258;28;20059;-44
2023/09/22 03:35:07;;;;;;;17.83;2.97;;;;;;;10.52;88.56;99144.56;5049436;28;20469;-45
2023/09/22 03:37:35;;;;;;;8.27;1.42;;;;;;;10.50;88.58;99153.25;5046829;28;20064;-45
2023/09/22 03:40:10;;;;;;;5.53;1.08;;;;;;;10.48;88.58;99149.28;5050374;28;20603;-44
2023/09/22 03:42:37;;;;;;;3.75;1.05;;;;;;;10.44;88.71;99145.69;5049205;28;20563;-45
2023/09/22 03:45:06;;;;;;;6.03;1.17;;;;;;;10.40;88.81;99154.75;5046944;28;20406;-44
2023/09/22 03:47:33;;;;;;;12.80;2.35;;;;;;;10.41;88.91;99150.00;5048978;28;20045;-49
2023/09/22 03:50:00;;;;;;;5.72;1.90;;;;;;;10.45;88.72;99156.38;5047441;28;20409;-45
2023/09/22 03:52:28;;;;;;;6.28;1.55;;;;;;;10.45;88.73;99155.59;5048337;28;20064;-44
2023/09/22 03:54:55;;;;;;;6.13;1.48;;;;;;;10.46;88.75;99173.78;5045216;28;20060;-45
2023/09/22 03:57:22;;;;;;;12.75;2.90;;;;;;;10.43;88.80;99169.81;5048908;28;20049;-44
2023/09/22 03:59:49;;;;;;;5.25;0.75;;;;;;;10.39;88.71;99169.78;5044647;28;20049;-44
2023/09/22 04:02:16;;;;;;;5.90;1.10;;;;;;;10.36;88.66;99170.53;5044710;28;20055;-44
2023/09/22 04:04:43;;;;;;;7.05;1.20;;;;;;;10.36;88.81;99181.59;5048884;28;20095;-45
2023/09/22 04:07:10;;;;;;;10.40;3.25;;;;;;;10.33;88.85;99178.78;5045508;28;20094;-44
2023/09/22 04:09:36;;;;;;;9.07;1.10;;;;;;;10.33;89.19;99181.56;5042885;28;20076;-44
2023/09/22 04:12:03;;;;;;;9.10;0.98;;;;;;;10.26;89.05;99187.84;5047961;28;20781;-45
2023/09/22 04:14:31;;;;;;;9.57;1.67;;;;;;;10.24;89.01;99179.13;5045974;28;20464;-44
2023/09/22 04:17:00;;;;;;;11.18;2.35;;;;;;;10.23;89.04;99183.06;5042859;28;20044;-44
2023/09/22 04:19:27;;;;;;;9.60;1.92;;;;;;;10.20;89.20;99185.78;5046548;28;20053;-45
2023/09/22 04:21:55;;;;;;;4.80;1.40;;;;;;;10.17;89.28;99184.56;5048677;28;20052;-45
2023/09/22 04:24:31;;;;;;;9.48;2.92;;;;;;;10.17;89.33;99184.56;5048428;28;20052;-44
2023/09/22 04:27:05;;;;;;;5.75;1.45;;;;;;;10.13;89.66;99194.81;5048098;28;20052;-44
2023/09/22 04:29:35;;;;;;;5.57;1.17;;;;;;;10.10;89.52;99184.47;5047205;28;20040;-44
2023/09/22 04:32:04;;;;;;;9.38;1.52;;;;;;;10.11;89.40;99197.13;5046380;28;20047;-44
2023/09/22 04:34:32;;;;;;;9.50;1.20;;;;;;;10.09;89.49;99199.47;5047548;28;20033;-44
2023/09/22 04:37:04;;;;;;;7.20;1.52;;;;;;;10.05;89.34;99209.72;5046975;28;20037;-44
2023/09/22 04:39:32;;;;;;;3.28;1.13;;;;;;;10.06;89.71;99205.75;5045883;28;20108;-44
2023/09/22 04:42:00;;;;;;;7.45;1.40;;;;;;;10.03;89.68;99203.78;5048488;28;20041;-45
2023/09/22 04:44:28;;;;;;;7.60;1.20;;;;;;;10.01;89.58;99203.34;5044497;28;20131;-45
2023/09/22 04:46:55;;;;;;;5.70;1.70;;;;;;;10.01;89.63;99208.88;5048993;28;20045;-44
2023/09/22 04:49:22;;;;;;;6.18;2.03;;;;;;;10.00;89.76;99204.53;5043069;28;20041;-44
2023/09/22 04:51:51;;;;;;;10.48;1.15;;;;;;;9.97;89.63;99218.31;5047655;28;20037;-44
2023/09/22 04:54:19;;;;;;;10.35;2.22;;;;;;;9.91;89.58;99215.06;5047525;28;20041;-45
2023/09/22 04:56:46;;;;;;;7.57;1.60;;;;;;;9.93;89.60;99217.47;5048666;28;20060;-45
2023/09/22 04:59:16;;;;;;;5.28;0.82;;;;;;;9.93;89.62;99228.53;5045385;28;20045;-45
2023/09/22 05:01:43;;;;;;;6.13;1.83;;;;;;;9.89;89.70;99228.50;5045211;28;20056;-45
2023/09/22 05:04:10;;;;;;;12.77;2.25;;;;;;;9.87;89.81;99236.38;5048972;28;20120;-44
2023/09/22 05:06:37;;;;;;;6.57;1.60;;;;;;;9.81;89.73;99237.88;5049982;28;20047;-45
2023/09/22 05:09:07;;;;;;;8.45;1.50;;;;;;;9.77;89.69;99242.53;5048972;28;20044;-45
2023/09/22 05:11:34;;;;;;;10.40;2.22;;;;;;;9.75;89.80;99242.13;5050615;28;20053;-45
2023/09/22 05:14:03;;;;;;;9.95;2.28;;;;;;;9.71;90.01;99238.53;5052294;28;20040;-46
2023/09/22 05:16:31;;;;;;;6.70;1.88;;;;;;;9.69;90.04;99249.16;5048622;28;20029;-44
2023/09/22 05:19:02;;;;;;;3.22;1.40;;;;;;;9.68;90.14;99250.34;5048701;28;20060;-44
2023/09/22 05:21:29;;;;;;;11.45;1.45;;;;;;;9.67;89.97;99257.03;5051366;28;20040;-45
2023/09/22 05:23:55;;;;;;;5.05;1.17;;;;;;;9.63;89.99;99268.06;5052123;28;20072;-45
2023/09/22 05:26:22;;;;;;;4.80;0.85;;;;;;;9.61;89.98;99262.09;5052444;28;20106;-45
2023/09/22 05:28:50;;;;;;;8.55;1.92;;;;;;;9.55;90.01;99268.31;5051709;28;20048;-45
2023/09/22 05:31:19;;;;;;;12.38;2.55;;;;;;;9.51;90.16;99262.75;5048494;28;20091;-49
2023/09/22 05:33:46;;;;;;;5.30;1.60;;;;;;;9.49;90.17;99276.13;5033533;28;20041;-45
2023/09/22 05:36:13;;;;;;;12.15;1.70;;;;;;;9.49;90.29;99269.81;5049891;28;20041;-44
2023/09/22 05:38:40;;;;;;;9.38;1.33;;;;;;;9.45;90.39;99280.03;5051929;28;20475;-44
2023/09/22 05:41:09;;;;;;;6.40;1.40;;;;;;;9.44;90.31;99275.66;5048443;28;20052;-45
2023/09/22 05:43:36;;;;;;;8.20;1.70;;;;;;;9.43;90.38;99283.16;5051035;28;20040;-44
2023/09/22 05:46:03;;;;;;;5.05;1.40;;;;;;;9.37;90.50;99286.63;5048196;28;20433;-45
2023/09/22 05:48:30;;;;;;;8.15;1.73;;;;;;;9.34;90.53;99285.41;5048809;28;20052;-44
2023/09/22 05:50:59;;;;;;;5.70;1.25;;;;;;;9.37;90.66;99283.84;5047492;28;20041;-44
2023/09/22 05:53:28;;;;;;;3.38;0.85;;;;;;;9.36;90.33;99290.53;5052386;28;20128;-45
2023/09/22 05:56:10;;;;;;;7.03;1.33;;;;;;;9.33;90.73;99294.03;5051729;28;20441;-47
2023/09/22 05:58:39;;;;;;;6.72;1.48;;;;;;;9.34;90.74;99295.66;5044511;28;20076;-45
2023/09/22 06:01:10;;;;;;;7.53;1.20;;;;;;;9.36;90.74;99298.81;5048600;28;20053;-44
2023/09/22 06:03:38;;;;;;;;;;;;;;;9.34;91.09;99307.50;5051101;28;20525;-46
2023/09/22 06:06:10;;;;;;;9.30;1.08;;;;;;;9.35;90.74;99302.75;5049020;28;19978;-46
2023/09/22 06:08:38;;;;;;;6.93;1.70;;;;;;;9.35;90.81;99309.06;5050069;28;20544;-44
2023/09/22 06:11:06;;;;;;;7.85;1.00;;;;;;;9.34;90.57;99306.69;5046030;28;20545;-46
2023/09/22 06:13:33;;;;;;;7.88;1.20;;;;;;;9.32;90.87;99323.63;5048869;28;20037;-44
2023/09/22 06:16:01;;;;;;;10.07;1.48;;;;;;;9.36;90.78;99331.97;5048519;28;20183;-49
2023/09/22 06:18:29;;;;;;;5.13;1.20;;;;;;;9.37;90.73;99330.81;5029731;28;20518;-44
2023/09/22 06:20:59;;;;;;;6.20;1.60;;;;;;;9.37;90.83;99333.56;5048497;28;20414;-45
2023/09/22 06:23:27;;;;;;;10.25;1.55;;;;;;;9.35;90.82;99338.66;5048785;28;20033;-44
2023/09/22 06:26:01;;;;;;;4.00;0.75;;;;;;;9.39;91.04;99339.50;5048553;28;20052;-45
2023/09/22 06:28:28;;;;;;;7.70;1.42;;;;;;;9.35;90.72;99338.66;5052222;28;20080;-44
2023/09/22 06:30:59;;;;;;;6.95;0.65;;;;;;;9.36;90.95;99343.00;5047548;28;20053;-44
2023/09/22 06:33:27;;;;;;;4.82;0.95;;;;;;;9.34;90.87;99351.69;5049283;28;20091;-44
2023/09/22 06:36:01;;;;;;;8.20;1.42;;;;;;;9.34;90.87;99357.22;5047370;28;20098;-44
2023/09/22 06:38:28;;;;;;;6.65;1.58;;;;;;;9.33;90.90;99349.28;5046086;28;20049;-44
2023/09/22 06:40:56;;;;;;;5.35;1.20;;;;;;;9.32;91.02;99355.97;5050424;28;20045;-45
2023/09/22 06:43:24;;;;;;;3.78;0.85;;;;;;;9.34;91.26;99364.69;5051066;28;20550;-44
2023/09/22 06:45:52;;;;;;;8.88;1.63;;;;;;;9.34;91.25;99368.25;5046701;28;20072;-44
2023/09/22 06:48:27;;;;;;;6.68;1.13;;;;;;;9.38;91.31;99373.81;5048528;28;20056;-44
2023/09/22 06:50:57;;;;;;;4.20;1.52;;;;;;;9.39;91.30;99387.28;5048760;28;20052;-45
2023/09/22 06:53:26;;;;;;;4.20;1.08;;;;;;;9.43;91.23;99390.06;5046262;28;20489;-45
2023/09/22 06:56:06;;;;;;;6.38;0.90;;;;;;;9.49;91.38;99396.88;5047366;28;20041;-44
2023/09/22 06:58:35;;;;;;;4.97;1.17;;;;;;;9.50;91.10;99395.72;5045597;28;20048;-45
2023/09/22 07:01:10;;;;;;;6.45;1.80;;;;;;;9.48;91.05;99401.59;5049629;28;20135;-44
2023/09/22 07:03:42;;;;;;;7.15;1.20;;;;;;;9.49;91.17;99396.88;5033735;28;20045;-45
2023/09/22 07:06:16;;;;;;;9.45;1.60;;;;;;;9.52;91.12;99401.69;5045898;28;20049;-44
2023/09/22 07:08:45;;;;;;;9.65;1.20;;;;;;;9.50;91.11;99404.03;5045058;28;20037;-44
2023/09/22 07:11:14;;;;;;;6.03;1.05;;;;;;;9.52;91.39;99407.19;5048465;28;20094;-44
2023/09/22 07:13:41;;;;;;;8.55;1.52;;;;;;;9.49;91.11;99407.94;5049746;28;20136;-44
2023/09/22 07:16:09;;;;;;;5.07;0.70;;;;;;;9.48;91.24;99406.34;5049326;28;20041;-45
2023/09/22 07:18:37;;;;;;;9.45;2.42;;;;;;;9.47;91.23;99415.81;5044298;28;20052;-44
2023/09/22 07:21:08;;;;;;;7.97;1.25;;;;;;;9.47;91.36;99413.84;5046418;28;20048;-44
2023/09/22 07:23:35;;;;;;;7.13;0.98;;;;;;;9.47;91.31;99418.56;5042696;28;20045;-45
2023/09/22 07:26:04;;;;;;;6.63;1.00;;;;;;;9.47;91.47;99421.34;5042457;28;20071;-44
2023/09/22 07:28:32;;;;;;;7.57;1.48;;;;;;;9.47;91.71;99422.13;5045884;28;20498;-44
2023/09/22 07:30:59;;;;;;;7.47;0.85;;;;;;;9.50;91.71;99421.41;5044855;28;20047;-44
2023/09/22 07:33:32;;;;;;;8.15;1.50;;;;;;;9.52;91.61;99426.53;5050187;28;20096;-46
2023/09/22 07:35:59;;;;;;;6.38;1.75;;;;;;;9.52;91.64;99424.59;5049043;28;20068;-44
2023/09/22 07:38:28;;;;;;;5.50;1.42;;;;;;;9.57;91.81;99432.56;5048201;28;20084;-46
2023/09/22 07:40:56;;;;;;;6.53;1.10;;;;;;;9.62;91.93;99446.06;5044350;28;20137;-47
2023/09/22 07:43:29;;;;;;;5.38;1.48;;;;;;;9.67;91.84;99447.69;5046996;28;20048;-45
2023/09/22 07:45:58;;;;;;;4.75;1.27;;;;;;;9.75;91.87;99452.16;5049206;28;20052;-44
2023/09/22 07:48:25;;;;;;;6.80;1.10;;;;;;;9.82;91.81;99455.06;5049805;28;20041;-48
2023/09/22 07:50:52;;;;;;;6.75;1.10;;;;;;;9.88;91.73;99450.78;5050293;28;20044;-46
2023/09/22 07:53:20;;;;;;;6.95;1.45;;;;;;;10.00;91.85;99463.63;5050430;28;20048;-46
2023/09/22 07:55:48;;;;;;;8.63;1.30;;;;;;;10.06;91.68;99465.69;5050065;28;20052;-44
2023/09/22 07:58:15;;;;;;;6.95;1.20;;;;;;;10.17;91.72;99471.41;5048458;28;20045;-46
2023/09/22 08:00:46;;;;;;;5.40;0.82;;;;;;;10.37;91.77;99487.53;5049799;28;20103;-45
2023/09/22 08:03:14;;;;;;;4.60;1.40;;;;;;;10.52;91.30;99482.97;5049122;28;20549;-45
2023/09/22 08:05:41;;;;;;;6.28;1.52;;;;;;;10.66;91.26;99482.34;5047531;28;20056;-44
2023/09/22 08:08:10;;;;;;;6.57;1.23;;;;;;;10.76;90.99;99495.53;5049056;28;20080;-45
2023/09/22 08:10:39;;;;;;;8.50;1.27;;;;;;;10.84;90.82;99503.53;5049904;28;20136;-45
2023/09/22 08:13:07;;;;;;;5.55;1.10;;;;;;;10.87;90.73;99510.31;5049498;28;20040;-45
2023/09/22 08:15:35;;;;;;;6.68;1.10;;;;;;;10.89;90.71;99508.75;5049570;28;20450;-45
2023/09/22 08:18:04;;;;;;;4.93;1.33;;;;;;;10.91;90.64;99511.13;5049690;28;20128;-46
2023/09/22 08:20:34;;;;;;;7.38;1.00;;;;;;;10.98;90.49;99519.53;5049461;28;20406;-45
2023/09/22 08:23:02;;;;;;;14.07;1.80;;;;;;;11.08;90.67;99524.41;5049143;28;20051;-45
2023/09/22 08:25:29;;;;;;;6.25;1.30;;;;;;;11.26;90.31;99516.28;5049157;28;20441;-44
2023/09/22 08:27:58;;;;;;;7.50;0.80;;;;;;;11.40;90.17;99522.78;5049828;28;20053;-45
2023/09/22 08:30:25;;;;;;;6.88;1.17;;;;;;;11.49;89.51;99531.56;5049210;28;20502;-45
2023/09/22 08:32:53;;;;;;;8.52;1.42;;;;;;;11.59;89.58;99536.44;5049410;28;20124;-44
2023/09/22 08:35:21;;;;;;;5.90;1.08;;;;;;;11.70;89.78;99541.31;5048247;28;20143;-44
2023/09/22 08:37:49;;;;;;;4.40;1.40;;;;;;;11.78;89.39;99548.53;5049211;28;20509;-45
2023/09/22 08:40:17;;;;;;;26.58;4.60;;;;;;;11.77;89.18;99544.16;5047923;28;20041;-49
2023/09/22 08:42:46;;;;;;;7.25;1.15;;;;;;;11.74;89.02;99548.47;5047484;28;20049;-46
2023/09/22 08:45:13;;;;;;;6.80;0.90;;;;;;;11.80;89.62;99557.25;5043939;28;20091;-46
2023/09/22 08:47:42;;;;;;;3.83;0.93;;;;;;;11.93;90.32;99555.78;5026708;28;20056;-48
2023/09/22 08:50:17;;;;;;;9.10;1.85;;;;;;;12.10;90.95;99557.91;5046420;28;20463;-47
2023/09/22 08:52:46;;;;;;;3.08;1.00;;;;;;;12.29;90.93;99565.19;5047932;28;20589;-46
2023/09/22 08:55:14;;;;;;;6.97;1.17;;;;;;;12.46;91.59;99561.75;5029087;28;20556;-46
2023/09/22 08:57:46;;;;;;;6.15;1.55;;;;;;;12.60;91.40;99573.72;5048783;28;20131;-52
2023/09/22 09:00:21;;;;;;;4.75;1.20;;;;;;;12.57;90.66;99568.19;5048556;28;20461;-50
2023/09/22 09:02:50;;;;;;;3.97;0.70;;;;;;;12.52;90.40;99563.75;5049587;28;20055;-46
2023/09/22 09:05:19;;;;;;;4.90;0.80;;;;;;;12.50;89.63;99565.34;5047181;28;20494;-48
2023/09/22 09:07:47;;;;;;;6.22;1.30;;;;;;;12.47;89.05;99571.69;5048309;28;20139;-46
2023/09/22 09:10:35;;;;;;;3.50;0.90;;;;;;;12.53;88.49;99582.03;5048504;28;20041;-51
2023/09/22 09:13:03;;;;;;;8.35;0.90;;;;;;;12.64;87.77;99591.22;5048401;28;20056;-49
2023/09/22 09:15:43;;;;;;;7.72;1.70;;;;;;;12.83;87.68;99582.63;5048262;28;20056;-48
2023/09/22 09:18:12;;;;;;;6.90;1.30;;;;;;;13.10;86.70;99602.63;5048353;28;20037;-47
2023/09/22 09:20:41;;;;;;;3.72;0.98;;;;;;;13.07;84.73;99594.28;5048655;28;20394;-46
2023/09/22 09:23:21;;;;;;;7.00;0.93;;;;;;;13.82;86.33;99612.81;5048555;28;20120;-46
2023/09/22 09:25:50;;;;;;;5.35;1.00;;;;;;;15.17;82.37;99614.34;5049114;28;20131;-47
2023/09/22 09:28:18;;;;;;;7.65;1.17;;;;;;;15.69;80.30;99621.72;5048591;28;20044;-47
2023/09/22 09:30:58;;;;;;;4.05;1.10;;;;;;;16.10;79.36;99624.66;5048482;28;20044;-46
2023/09/22 09:33:28;;;;;;;9.75;1.27;;;;;;;16.13;77.85;99623.03;5048618;28;20127;-46
2023/09/22 09:35:58;;;;;;;2.88;1.10;;;;;;;16.12;77.12;99624.25;5046814;28;20033;-46
2023/09/22 09:38:29;;;;;;;7.18;1.20;;;;;;;16.07;77.12;99625.47;5047722;28;20049;-46
2023/09/22 09:40:58;;;;;;;4.10;1.00;;;;;;;16.58;76.52;99626.72;5050325;28;20547;-48
2023/09/22 09:43:26;;;;;;;14.50;2.00;;;;;;;16.93;74.15;99627.19;5048565;28;20041;-46
2023/09/22 09:45:57;;;;;;;4.97;1.15;;;;;;;16.60;73.48;99636.25;5048332;28;20053;-46
2023/09/22 09:48:26;;;;;;;5.82;1.10;;;;;;;16.09;73.63;99637.06;5048252;28;20049;-49
2023/09/22 09:50:59;;;;;;;7.78;1.58;;;;;;;16.26;74.74;99638.91;5047494;28;20142;-46
2023/09/22 09:53:39;;;;;;;5.30;1.20;;;;;;;16.41;72.92;99643.19;5051365;28;20067;-47
2023/09/22 09:56:06;;;;;;;5.63;1.08;;;;;;;16.10;71.75;99644.22;5051971;28;20063;-46
2023/09/22 09:58:35;;;;;;;7.10;1.20;;;;;;;15.98;71.76;99643.88;5049309;28;20048;-47
2023/09/22 10:01:07;;;;;;;6.15;1.80;;;;;;;15.77;71.15;99644.81;5051950;28;20138;-46
2023/09/22 10:03:39;;;;;;;6.65;1.10;;;;;;;15.44;70.94;99653.69;5052172;28;20055;-45
2023/09/22 10:06:11;;;;;;;9.25;1.17;;;;;;;15.08;70.82;99647.44;5051985;28;20076;-45
2023/09/22 10:08:38;;;;;;;7.25;1.80;;;;;;;14.84;71.00;99645.50;5050050;28;20106;-44
2023/09/22 10:11:13;;;;;;;5.30;1.50;;;;;;;14.70;71.78;99645.50;5052177;28;20506;-47
2023/09/22 10:13:40;;;;;;;6.72;1.48;;;;;;;15.53;70.51;99656.88;5051248;28;20132;-44
2023/09/22 10:16:08;;;;;;;4.63;1.40;;;;;;;16.54;68.12;99659.50;5051734;28;20041;-44
2023/09/22 10:18:51;;;;;;;6.72;1.85;;;;;;;17.25;66.67;99660.41;5051595;28;20045;-44
2023/09/22 10:21:34;;;;;;;11.68;2.50;;;;;;;17.31;66.20;99669.94;5051540;28;20479;-45
2023/09/22 10:24:23;;;;;;;10.43;2.22;;;;;;;16.86;66.09;99666.41;5049766;28;20048;-44
2023/09/22 10:26:53;;;;;;;9.10;2.28;;;;;;;16.35;66.62;99669.97;5050834;28;20123;-47
2023/09/22 10:29:32;;;;;;;8.68;0.93;;;;;;;16.15;67.45;99666.09;5051594;28;20103;-49
2023/09/22 10:32:15;;;;;;;3.88;1.30;;;;;;;15.95;67.08;99661.44;5051494;28;20045;-48
2023/09/22 10:35:07;;;;;;;4.95;2.00;;;;;;;16.43;66.54;99670.72;5051086;28;20444;-46
2023/09/22 10:37:35;;;;;;;6.63;1.90;;;;;;;17.01;63.70;99681.03;5050428;28;20061;-45
2023/09/22 10:40:09;;;;;;;7.50;1.83;;;;;;;17.22;63.22;99666.81;5051654;28;20056;-45
2023/09/22 10:42:41;;;;;;;6.95;1.98;;;;;;;17.84;62.04;99668.53;5052136;28;20068;-45
2023/09/22 10:45:08;;;;;;;10.38;1.85;;;;;;;18.60;60.15;99682.63;5049836;28;20037;-48
2023/09/22 10:47:42;;;;;;;6.75;1.77;;;;;;;19.09;58.44;99680.19;5041720;28;20046;-45
2023/09/22 10:50:16;;;;;;;6.88;1.80;;;;;;;19.28;57.24;99687.84;5044521;28;20037;-48
2023/09/22 10:53:10;;;;;;;4.47;1.30;;;;;;;18.97;57.75;99689.22;5048394;28;20044;-45
2023/09/22 10:55:42;;;;;;;2.90;1.10;;;;;;;19.04;57.23;99680.66;5042211;28;20058;-47
2023/09/22 10:58:18;;;;;;;6.90;1.50;;;;;;;18.74;57.87;99682.38;5048157;28;20041;-45
2023/09/22 11:01:08;;;;;;;5.68;1.05;;;;;;;18.57;58.08;99680.66;5048277;28;20045;-44
2023/09/22 11:03:35;;;;;;;6.65;1.40;;;;;;;18.13;58.32;99681.72;5047122;28;20483;-46
2023/09/22 11:06:06;;;;;;;7.53;1.75;;;;;;;17.60;59.24;99685.22;5044339;28;20826;-47
2023/09/22 11:08:34;;;;;;;7.25;1.60;;;;;;;17.15;59.84;99682.91;5046191;28;20040;-44
2023/09/22 11:11:03;;;;;;;4.43;1.58;;;;;;;16.81;60.72;99685.63;5046910;28;20090;-45
2023/09/22 11:13:30;;;;;;;4.95;1.33;;;;;;;16.44;61.35;99689.09;5046783;28;20399;-48
2023/09/22 11:16:02;;;;;;;7.50;1.30;;;;;;;16.22;61.86;99688.44;5047776;28;20520;-45
2023/09/22 11:18:33;;;;;;;8.13;1.60;;;;;;;16.13;62.09;99684.47;5048389;28;20471;-48
2023/09/22 11:21:11;;;;;;;4.22;1.50;;;;;;;16.06;62.17;99688.13;5050585;28;20036;-44
2023/09/22 11:23:39;;;;;;;5.43;1.67;;;;;;;15.97;62.42;99693.34;5048483;28;20396;-45
2023/09/22 11:26:12;;;;;;;8.73;1.83;;;;;;;15.96;62.38;99697.34;5050129;28;20041;-44
2023/09/22 11:28:43;;;;;;;5.00;1.63;;;;;;;15.87;62.65;99698.97;5050457;28;20605;-45
2023/09/22 11:31:12;;;;;;;4.15;1.05;;;;;;;15.85;62.72;99702.19;5045348;28;20106;-45
2023/09/22 11:33:44;;;;;;;6.63;1.58;;;;;;;15.85;62.57;99707.78;5050854;28;20478;-45
2023/09/22 11:36:12;;;;;;;;;;;;;;;15.73;62.84;99697.03;5049875;28;20106;-45
2023/09/22 11:38:45;;;;;;;8.88;2.63;;;;;;;15.69;63.02;99710.22;5050275;28;19932;-44
2023/09/22 11:41:16;;;;;;;6.53;1.70;;;;;;;15.72;63.06;99712.22;5051997;28;20055;-44
2023/09/22 11:43:44;;;;;;;8.57;1.50;;;;;;;15.69;63.00;99713.03;5048845;28;20091;-44
2023/09/22 11:46:15;;;;;;;4.80;1.27;;;;;;;15.63;63.00;99717.41;5045221;28;20045;-44
2023/09/22 11:48:59;;;;;;;10.18;1.98;;;;;;;15.50;62.69;99714.28;5046170;28;20146;-46